createdAt,value
2023-05-21T00:01:45.596Z,146135.94
2023-05-21T00:04:13.167Z,146123.75
2023-05-21T00:06:40.307Z,146148.06
2023-05-21T00:09:07.922Z,146137.13
2023-05-21T00:11:34.969Z,146133.47
2023-05-21T00:14:02.056Z,146131.03
2023-05-21T00:16:29.186Z,146126.16
2023-05-21T00:18:57.992Z,146132.28
2023-05-21T00:21:26.128Z,146115.22
2023-05-21T00:23:54.234Z,146095.78
2023-05-21T00:26:21.613Z,146073.81
2023-05-21T00:28:50.151Z,146127.41
2023-05-21T00:31:17.352Z,146023.94
2023-05-21T00:33:44.531Z,146049.50
2023-05-21T00:36:14.287Z,146104.31
2023-05-21T00:38:46.043Z,146166.31
2023-05-21T00:41:13.569Z,146208.94
2023-05-21T00:43:41.460Z,146167.53
2023-05-21T00:46:16.685Z,146129.81
2023-05-21T00:48:45.903Z,146098.19
2023-05-21T00:51:15.792Z,146093.31
2023-05-21T00:53:43.193Z,146020.28
2023-05-21T00:56:10.792Z,146082.38
2023-05-21T00:58:39.357Z,146078.72
2023-05-21T01:01:06.792Z,146075.03
2023-05-21T01:03:38.376Z,146072.63
2023-05-21T01:06:07.866Z,146064.09
2023-05-21T01:08:37.609Z,146064.09
2023-05-21T01:11:06.270Z,145988.66
2023-05-21T01:13:36.925Z,146079.94
2023-05-21T01:16:06.600Z,146090.91
2023-05-21T01:18:40.152Z,146078.72
2023-05-21T01:21:07.586Z,146078.72
2023-05-21T01:23:35.090Z,146076.28
2023-05-21T01:26:02.157Z,146071.38
2023-05-21T01:28:29.874Z,146073.81
2023-05-21T01:31:05.457Z,146037.31
2023-05-21T01:33:41.817Z,146049.50
2023-05-21T01:36:15.843Z,146082.38
2023-05-21T01:38:51.133Z,146065.31
2023-05-21T01:41:19.303Z,146005.69
2023-05-21T01:43:47.355Z,146061.63
2023-05-21T01:46:18.780Z,146073.81
2023-05-21T01:48:46.747Z,146059.22
2023-05-21T01:51:14.675Z,146064.09
2023-05-21T01:53:42.142Z,146077.53
2023-05-21T01:56:09.308Z,146081.19
2023-05-21T01:58:36.437Z,146072.63
2023-05-21T02:01:04.987Z,146079.94
2023-05-21T02:03:32.377Z,146114.03
2023-05-21T02:05:59.632Z,146095.78
2023-05-21T02:08:27.846Z,146083.59
2023-05-21T02:10:55.549Z,146076.28
2023-05-21T02:13:25.169Z,146082.38
2023-05-21T02:15:54.615Z,146084.81
2023-05-21T02:18:22.227Z,146090.91
2023-05-21T02:20:49.998Z,146092.13
2023-05-21T02:23:17.255Z,146120.09
2023-05-21T02:25:44.316Z,146100.63
2023-05-21T02:28:12.730Z,146090.91
2023-05-21T02:30:39.841Z,146081.19
2023-05-21T02:33:08.957Z,146095.78
2023-05-21T02:35:36.682Z,146026.41
2023-05-21T02:38:04.083Z,146078.72
2023-05-21T02:40:32.751Z,146095.78
2023-05-21T02:42:59.890Z,146098.19
2023-05-21T02:45:27.061Z,146133.47
2023-05-21T02:47:54.202Z,146103.06
2023-05-21T02:50:22.715Z,146083.59
2023-05-21T02:52:59.705Z,146081.19
2023-05-21T02:55:26.883Z,146089.66
2023-05-21T02:57:53.917Z,146076.28
2023-05-21T03:00:21.048Z,146059.22
2023-05-21T03:02:48.313Z,146060.44
2023-05-21T03:05:15.676Z,146049.50
2023-05-21T03:07:43.532Z,146056.78
2023-05-21T03:10:11.132Z,146023.94
2023-05-21T03:12:38.225Z,146044.66
2023-05-21T03:15:05.831Z,146037.31
2023-05-21T03:17:33.417Z,146039.75
2023-05-21T03:20:01.468Z,146038.53
2023-05-21T03:22:28.554Z,146037.31
2023-05-21T03:24:55.865Z,146060.44
2023-05-21T03:27:22.941Z,146051.91
2023-05-21T03:29:50.395Z,146065.31
2023-05-21T03:32:17.638Z,146071.38
2023-05-21T03:34:46.845Z,146059.22
2023-05-21T03:37:16.884Z,146056.78
2023-05-21T03:39:44.313Z,146054.38
2023-05-21T03:42:13.934Z,146032.47
2023-05-21T03:44:51.141Z,146057.97
2023-05-21T03:47:36.911Z,146056.78
2023-05-21T03:50:07.733Z,146054.38
2023-05-21T03:52:35.067Z,146032.47
2023-05-21T03:55:02.573Z,146044.66
2023-05-21T03:57:30.303Z,146039.75
2023-05-21T03:59:58.950Z,146054.38
2023-05-21T04:02:27.310Z,146041.00
2023-05-21T04:04:56.059Z,146073.81
2023-05-21T04:07:23.764Z,146047.06
2023-05-21T04:09:50.869Z,146081.19
2023-05-21T04:12:20.140Z,146088.47
2023-05-21T04:14:47.337Z,146083.59
2023-05-21T04:17:14.530Z,146088.47
2023-05-21T04:19:41.985Z,146086.06
2023-05-21T04:22:11.578Z,146090.91
2023-05-21T04:24:39.427Z,146098.19
2023-05-21T04:27:11.368Z,146081.19
2023-05-21T04:29:42.639Z,146099.44
2023-05-21T04:32:10.016Z,146095.78
2023-05-21T04:34:37.746Z,146061.63
2023-05-21T04:37:04.939Z,146088.47
2023-05-21T04:39:32.132Z,146140.81
2023-05-21T04:41:59.195Z,146138.34
2023-05-21T04:44:26.701Z,146156.59
2023-05-21T04:46:54.831Z,146171.19
2023-05-21T04:49:22.213Z,146169.97
2023-05-21T04:51:52.252Z,146183.38
2023-05-21T04:54:19.307Z,146213.81
2023-05-21T04:56:47.338Z,146215.03
2023-05-21T04:59:15.024Z,146229.63
2023-05-21T05:01:43.844Z,146234.47
2023-05-21T05:04:10.978Z,146250.34
2023-05-21T05:06:38.025Z,146273.44
2023-05-21T05:09:05.994Z,146289.25
2023-05-21T05:11:33.104Z,146275.84
2023-05-21T05:14:00.182Z,146283.19
2023-05-21T05:16:27.905Z,146283.19
2023-05-21T05:18:56.992Z,146322.13
2023-05-21T05:21:24.872Z,146339.16
2023-05-21T05:23:52.092Z,146278.31
2023-05-21T05:26:22.581Z,146346.50
2023-05-21T05:28:49.903Z,146358.63
2023-05-21T05:31:17.045Z,146369.63
2023-05-21T05:33:44.571Z,146378.16
2023-05-21T05:36:12.287Z,146420.81
2023-05-21T05:38:40.046Z,146390.31
2023-05-21T05:41:07.621Z,146430.53
2023-05-21T05:43:35.250Z,146429.34
2023-05-21T05:46:02.439Z,146470.75
2023-05-21T05:48:29.629Z,146482.94
2023-05-21T05:50:58.054Z,146521.88
2023-05-21T05:53:26.588Z,146580.38
2023-05-21T05:55:54.302Z,146590.09
2023-05-21T05:58:21.400Z,146604.72
2023-05-21T06:00:56.586Z,146662.00
2023-05-21T06:03:24.937Z,146660.75
2023-05-21T06:05:53.415Z,146688.81
2023-05-21T06:08:20.657Z,146692.44
2023-05-21T06:10:47.694Z,146690.03
2023-05-21T06:13:15.474Z,146766.88
2023-05-21T06:15:45.601Z,146775.41
2023-05-21T06:18:12.800Z,146785.16
2023-05-21T06:20:39.910Z,146775.41
2023-05-21T06:23:08.752Z,146804.66
2023-05-21T06:25:36.241Z,146822.94
2023-05-21T06:28:03.598Z,146836.34
2023-05-21T06:30:31.715Z,146871.72
2023-05-21T06:32:59.581Z,146785.16
2023-05-21T06:35:26.803Z,146887.53
2023-05-21T06:37:53.882Z,146876.59
2023-05-21T06:40:21.805Z,146935.09
2023-05-21T06:42:50.498Z,146972.91
2023-05-21T06:45:32.248Z,146968.06
2023-05-21T06:48:04.615Z,147014.44
2023-05-21T06:50:31.960Z,147014.44
2023-05-21T06:52:59.133Z,147016.84
2023-05-21T06:55:26.189Z,147090.03
2023-05-21T06:58:14.601Z,147082.75
2023-05-21T07:00:41.661Z,147127.91
2023-05-21T07:03:08.862Z,147087.63
2023-05-21T07:05:36.743Z,147212.06
2023-05-21T07:08:05.392Z,147152.28
2023-05-21T07:10:32.475Z,147201.13
2023-05-21T07:12:59.532Z,147284.16
2023-05-21T07:15:27.280Z,147300.00
2023-05-21T07:17:54.483Z,147292.69
2023-05-21T07:20:21.613Z,147232.81
2023-05-21T07:22:51.802Z,147335.41
2023-05-21T07:25:18.890Z,147373.25
2023-05-21T07:27:46.093Z,147378.13
2023-05-21T07:30:14.227Z,147339.06
2023-05-21T07:32:42.018Z,147408.66
2023-05-21T07:35:09.473Z,147424.50
2023-05-21T07:37:36.684Z,147456.28
2023-05-21T07:40:06.279Z,147518.63
2023-05-21T07:42:33.857Z,147532.06
2023-05-21T07:45:02.325Z,147607.75
2023-05-21T07:47:32.415Z,147578.47
2023-05-21T07:49:59.950Z,147602.88
2023-05-21T07:52:27.158Z,147705.53
2023-05-21T07:54:54.236Z,147742.25
2023-05-21T07:57:23.224Z,147754.44
2023-05-21T08:00:02.485Z,147712.84
2023-05-21T08:02:31.823Z,147763.00
2023-05-21T08:04:59.134Z,147793.56
2023-05-21T08:07:26.564Z,147772.78
2023-05-21T08:09:54.435Z,147761.78
2023-05-21T08:12:21.656Z,147792.38
2023-05-21T08:14:49.092Z,147910.91
2023-05-21T08:17:16.865Z,147965.97
2023-05-21T08:19:44.464Z,148018.56
2023-05-21T08:22:11.638Z,148018.56
2023-05-21T08:24:42.094Z,147930.50
2023-05-21T08:27:10.102Z,148074.81
2023-05-21T08:29:37.501Z,148115.19
2023-05-21T08:32:06.744Z,148139.66
2023-05-21T08:34:33.985Z,148167.81
2023-05-21T08:37:18.296Z,148231.44
2023-05-21T08:39:58.753Z,148268.16
2023-05-21T08:42:38.278Z,148241.22
2023-05-21T08:45:07.648Z,148277.94
2023-05-21T08:47:36.927Z,148363.69
2023-05-21T08:50:10.367Z,148322.03
2023-05-21T08:52:37.792Z,148346.53
2023-05-21T08:55:05.955Z,148417.53
2023-05-21T08:57:34.363Z,148438.34
2023-05-21T09:00:04.641Z,148517.94
2023-05-21T09:02:35.206Z,148584.09
2023-05-21T09:05:04.463Z,148555.94
2023-05-21T09:07:38.602Z,148520.38
2023-05-21T09:10:46.438Z,148642.91
2023-05-21T09:13:14.463Z,148596.38
2023-05-21T09:15:41.908Z,148631.84
2023-05-21T09:18:09.795Z,148673.53
2023-05-21T09:21:26.562Z,148761.78
2023-05-21T09:23:58.034Z,148716.41
2023-05-21T09:26:26.502Z,148671.06
2023-05-21T09:28:59.305Z,148630.63
2023-05-21T09:31:27.265Z,148586.56
2023-05-21T09:33:55.767Z,148631.84
2023-05-21T09:36:24.547Z,148652.69
2023-05-21T09:38:52.381Z,148679.66
2023-05-21T09:41:21.910Z,148758.09
2023-05-21T09:43:49.739Z,148739.72
2023-05-21T09:46:20.963Z,148674.75
2023-05-21T09:48:48.146Z,148728.72
2023-05-21T09:51:19.850Z,148780.16
2023-05-21T09:53:54.347Z,148829.13
2023-05-21T09:56:24.304Z,148837.72
2023-05-21T09:58:54.648Z,148910.09
2023-05-21T10:01:22.102Z,148819.34
2023-05-21T10:03:56.107Z,148885.53
2023-05-21T10:06:28.226Z,148853.69
2023-05-21T10:08:56.894Z,148956.66
2023-05-21T10:11:27.369Z,149013.03
2023-05-21T10:14:00.903Z,149074.34
2023-05-21T10:16:29.123Z,149113.63
2023-05-21T10:18:57.984Z,149203.16
2023-05-21T10:21:26.477Z,149181.06
2023-05-21T10:23:56.437Z,149089.09
2023-05-21T10:26:24.628Z,149123.41
2023-05-21T10:28:52.172Z,149035.09
2023-05-21T10:31:19.933Z,149114.88
2023-05-21T10:33:48.358Z,149150.41
2023-05-21T10:36:18.728Z,149242.38
2023-05-21T10:38:47.034Z,149198.25
2023-05-21T10:41:17.157Z,149233.78
2023-05-21T10:43:44.235Z,149223.97
2023-05-21T10:46:29.364Z,149258.41
2023-05-21T10:49:46.995Z,149239.94
2023-05-21T10:52:38.373Z,149263.31
2023-05-21T10:55:23.495Z,149316.03
2023-05-21T10:58:12.477Z,149332.00
2023-05-21T11:00:39.855Z,149351.63
2023-05-21T11:03:08.294Z,149378.63
2023-05-21T11:05:53.940Z,149346.72
2023-05-21T11:08:26.271Z,149305.00
2023-05-21T11:10:58.340Z,149355.31
2023-05-21T11:13:26.965Z,149352.81
2023-05-21T11:16:02.678Z,149379.81
2023-05-21T11:18:35.837Z,149422.81
2023-05-21T11:21:06.428Z,149349.13
2023-05-21T11:24:14.810Z,149354.09
2023-05-21T11:26:47.915Z,149354.09
2023-05-21T11:29:15.023Z,149290.28
2023-05-21T11:31:47.333Z,149324.63
2023-05-21T11:34:28.280Z,149370.00
2023-05-21T11:37:17.575Z,149258.41
2023-05-21T11:39:45.392Z,149328.31
2023-05-21T11:42:12.849Z,149404.34
2023-05-21T11:44:47.167Z,149319.72
2023-05-21T11:47:15.840Z,149282.91
2023-05-21T11:49:43.738Z,149317.28
2023-05-21T11:52:12.274Z,149282.91
2023-05-21T11:54:46.271Z,149486.63
2023-05-21T11:57:18.685Z,149518.53
2023-05-21T11:59:47.081Z,149400.69
2023-05-21T12:02:18.552Z,149501.38
2023-05-21T12:04:48.348Z,149424.06
2023-05-21T12:07:17.477Z,149459.59
2023-05-21T12:09:49.170Z,149554.13
2023-05-21T12:12:18.650Z,149435.09
2023-05-21T12:14:55.769Z,149468.22
2023-05-21T12:17:24.314Z,149535.72
2023-05-21T12:19:53.590Z,149449.81
2023-05-21T12:22:21.400Z,149474.38
2023-05-21T12:24:48.787Z,149444.91
2023-05-21T12:27:16.773Z,149494.00
2023-05-21T12:29:45.497Z,149478.03
2023-05-21T12:32:14.838Z,149534.50
2023-05-21T12:34:46.653Z,149498.91
2023-05-21T12:37:20.804Z,149514.84
2023-05-21T12:39:49.499Z,149511.19
2023-05-21T12:42:17.297Z,149442.47
2023-05-21T12:44:46.689Z,149427.75
2023-05-21T12:47:14.075Z,149388.41
2023-05-21T12:49:44.776Z,149376.13
2023-05-21T12:52:13.734Z,149367.53
2023-05-21T12:54:43.657Z,149347.91
2023-05-21T12:57:16.378Z,149339.34
2023-05-21T12:59:52.205Z,149319.72
2023-05-21T13:02:27.751Z,149344.22
2023-05-21T13:05:19.436Z,149433.88
2023-05-21T13:07:47.670Z,149383.50
2023-05-21T13:10:16.728Z,149451.06
2023-05-21T13:12:44.627Z,149449.81
2023-05-21T13:15:12.066Z,149525.91
2023-05-21T13:17:39.257Z,149541.84
2023-05-21T13:20:12.470Z,149641.34
2023-05-21T13:22:46.701Z,149668.34
2023-05-21T13:25:22.318Z,149636.44
2023-05-21T13:27:50.773Z,149567.63
2023-05-21T13:30:18.767Z,149673.25
2023-05-21T13:32:46.372Z,149631.53
2023-05-21T13:35:15.190Z,149702.69
2023-05-21T13:37:42.330Z,149565.16
2023-05-21T13:40:11.972Z,149653.63
2023-05-21T13:42:39.127Z,149567.63
2023-05-21T13:45:08.725Z,149577.50
2023-05-21T13:47:39.114Z,149670.78
2023-05-21T13:50:08.451Z,149683.06
2023-05-21T13:52:36.296Z,149707.63
2023-05-21T13:55:03.712Z,149678.16
2023-05-21T13:57:31.018Z,149695.38
2023-05-21T13:59:59.389Z,149668.34
2023-05-21T14:02:27.004Z,149694.09
2023-05-21T14:04:54.275Z,149658.53
2023-05-21T14:07:22.126Z,149611.84
2023-05-21T14:09:49.617Z,149540.63
2023-05-21T14:12:17.053Z,149509.94
2023-05-21T14:14:44.700Z,149481.72
2023-05-21T14:17:11.889Z,149452.28
2023-05-21T14:19:38.947Z,149437.56
2023-05-21T14:22:06.065Z,149454.72
2023-05-21T14:24:33.151Z,149566.41
2023-05-21T14:27:00.429Z,149529.59
2023-05-21T14:29:27.624Z,149573.75
2023-05-21T14:31:54.769Z,149572.53
2023-05-21T14:34:21.839Z,149744.50
2023-05-21T14:36:48.923Z,149846.41
2023-05-21T14:39:16.331Z,149771.50
2023-05-21T14:41:43.389Z,149899.31
2023-05-21T14:44:10.486Z,149943.50
2023-05-21T14:46:39.446Z,149894.38
2023-05-21T14:49:06.681Z,149750.66
2023-05-21T14:51:33.796Z,149739.59
2023-05-21T14:54:00.872Z,149604.50
2023-05-21T14:56:28.146Z,149487.88
2023-05-21T14:58:56.233Z,149381.03
2023-05-21T15:01:23.650Z,149355.31
2023-05-21T15:03:51.341Z,149325.84
2023-05-21T15:06:18.600Z,149300.09
2023-05-21T15:08:45.701Z,149263.31
2023-05-21T15:11:12.802Z,149290.28
2023-05-21T15:13:39.873Z,149296.41
2023-05-21T15:16:07.080Z,149363.91
2023-05-21T15:18:34.193Z,149399.44
2023-05-21T15:21:01.343Z,149371.22
2023-05-21T15:23:28.607Z,149387.19
2023-05-21T15:25:55.744Z,149444.91
2023-05-21T15:28:23.028Z,149340.59
2023-05-21T15:30:50.441Z,149325.84
2023-05-21T15:33:17.754Z,149219.06
2023-05-21T15:35:45.230Z,149287.81
2023-05-21T15:38:12.522Z,149324.63
2023-05-21T15:40:41.382Z,149306.22
2023-05-21T15:43:08.717Z,149327.09
2023-05-21T15:45:36.308Z,149332.00
2023-05-21T15:48:03.908Z,149368.81
2023-05-21T15:50:31.167Z,149352.81
2023-05-21T15:52:58.227Z,149430.19
2023-05-21T15:55:25.331Z,149363.91
2023-05-21T15:57:52.555Z,149370.00
2023-05-21T16:00:19.716Z,149388.41
2023-05-21T16:02:46.920Z,149354.09
2023-05-21T16:05:14.169Z,149262.09
2023-05-21T16:07:41.337Z,149270.63
2023-05-21T16:10:10.290Z,149257.13
2023-05-21T16:12:37.961Z,149246.06
2023-05-21T16:15:05.933Z,149222.75
2023-05-21T16:17:33.122Z,149260.81
2023-05-21T16:20:00.354Z,149219.06
2023-05-21T16:22:27.461Z,149239.94
2023-05-21T16:24:54.949Z,149232.56
2023-05-21T16:27:22.056Z,149276.78
2023-05-21T16:29:49.283Z,149349.13
2023-05-21T16:32:16.560Z,149373.72
2023-05-21T16:34:43.635Z,149469.47
2023-05-21T16:37:11.180Z,149405.59
2023-05-21T16:39:38.679Z,149339.34
2023-05-21T16:42:05.838Z,149349.13
2023-05-21T16:44:32.992Z,149334.44
2023-05-21T16:47:00.474Z,149293.94
2023-05-21T16:49:28.002Z,149312.34
2023-05-21T16:51:55.252Z,149267.00
2023-05-21T16:54:22.349Z,149268.19
2023-05-21T16:56:49.554Z,149257.13
2023-05-21T16:59:16.687Z,149447.38
2023-05-21T17:01:43.889Z,149546.75
2023-05-21T17:04:11.156Z,149511.19
2023-05-21T17:06:38.302Z,149484.19
2023-05-21T17:09:07.644Z,149463.31
2023-05-21T17:11:35.085Z,149415.47
2023-05-21T17:14:02.252Z,149354.09
2023-05-21T17:16:29.438Z,149336.91
2023-05-21T17:18:56.628Z,149347.91
2023-05-21T17:21:23.835Z,149324.63
2023-05-21T17:23:50.901Z,149300.09
2023-05-21T17:26:17.984Z,149290.28
2023-05-21T17:28:45.159Z,149262.09
2023-05-21T17:31:12.320Z,149189.66
2023-05-21T17:33:39.466Z,149208.06
2023-05-21T17:36:06.807Z,149219.06
2023-05-21T17:38:33.880Z,149197.00
2023-05-21T17:41:01.013Z,149209.28
2023-05-21T17:43:28.073Z,149208.06
2023-05-21T17:45:55.134Z,149197.00
2023-05-21T17:48:22.301Z,149179.84
2023-05-21T17:50:49.421Z,149146.72
2023-05-21T17:53:16.605Z,149135.69
2023-05-21T17:55:43.895Z,149130.78
2023-05-21T17:58:10.992Z,149073.09
2023-05-21T18:00:40.196Z,149092.78
2023-05-21T18:03:07.424Z,149059.66
2023-05-21T18:05:34.800Z,148995.91
2023-05-21T18:08:02.709Z,148940.75
2023-05-21T18:10:29.804Z,148895.34
2023-05-21T18:12:56.985Z,148881.84
2023-05-21T18:15:24.087Z,148875.75
2023-05-21T18:17:51.280Z,148858.56
2023-05-21T18:20:18.463Z,148755.63
2023-05-21T18:22:45.603Z,148782.59
2023-05-21T18:25:12.676Z,148782.59
2023-05-21T18:27:39.741Z,148732.34
2023-05-21T18:30:08.495Z,148736.03
2023-05-21T18:32:38.603Z,148679.66
2023-05-21T18:35:16.621Z,148667.38
2023-05-21T18:37:44.580Z,148664.97
2023-05-21T18:40:13.034Z,148647.78
2023-05-21T18:42:40.493Z,148620.84
2023-05-21T18:45:09.083Z,148592.69
2023-05-21T18:47:36.369Z,148563.31
2023-05-21T18:50:03.737Z,148552.25
2023-05-21T18:52:30.960Z,148514.28
2023-05-21T18:54:57.995Z,148462.84
2023-05-21T18:57:25.098Z,148464.06
2023-05-21T18:59:52.168Z,148422.44
2023-05-21T19:02:19.277Z,148405.28
2023-05-21T19:04:46.523Z,148270.63
2023-05-21T19:07:15.730Z,148352.69
2023-05-21T19:09:42.818Z,148318.34
2023-05-21T19:12:09.921Z,148279.22
2023-05-21T19:14:37.076Z,148268.16
2023-05-21T19:17:04.454Z,148238.81
2023-05-21T19:19:31.556Z,148160.50
2023-05-21T19:21:58.700Z,148192.31
2023-05-21T19:24:26.113Z,148189.84
2023-05-21T19:26:53.149Z,148199.63
2023-05-21T19:29:21.391Z,148172.75
2023-05-21T19:31:48.651Z,148184.97
2023-05-21T19:34:15.812Z,148175.19
2023-05-21T19:36:52.922Z,148159.31
2023-05-21T19:39:21.197Z,148149.47
2023-05-21T19:41:48.343Z,148123.75
2023-05-21T19:44:15.568Z,148116.41
2023-05-21T19:46:42.675Z,148084.59
2023-05-21T19:49:11.046Z,148079.72
2023-05-21T19:51:38.110Z,148065.03
2023-05-21T19:54:05.334Z,148023.47
2023-05-21T19:56:32.419Z,147967.22
2023-05-21T19:58:59.441Z,147946.41
2023-05-21T20:01:28.602Z,147908.47
2023-05-21T20:03:55.932Z,147869.34
2023-05-21T20:06:23.149Z,147830.25
2023-05-21T20:08:51.654Z,147800.88
2023-05-21T20:11:18.976Z,147785.00
2023-05-21T20:13:50.126Z,147727.53
2023-05-21T20:16:20.251Z,147738.56
2023-05-21T20:18:47.550Z,147727.53
2023-05-21T20:21:17.457Z,147659.13
2023-05-21T20:23:45.524Z,147703.06
2023-05-21T20:26:13.810Z,147687.22
2023-05-21T20:28:42.395Z,147621.22
2023-05-21T20:31:09.481Z,147664.00
2023-05-21T20:33:40.994Z,147644.41
2023-05-21T20:36:08.135Z,147644.41
2023-05-21T20:38:36.982Z,147620.00
2023-05-21T20:41:05.178Z,147517.41
2023-05-21T20:43:32.919Z,147561.34
2023-05-21T20:46:00.197Z,147547.91
2023-05-21T20:48:29.701Z,147532.06
2023-05-21T20:51:00.397Z,147474.59
2023-05-21T20:53:27.553Z,147492.94
2023-05-21T20:55:54.770Z,147485.59
2023-05-21T20:58:23.943Z,147400.09
2023-05-21T21:00:51.275Z,147446.50
2023-05-21T21:03:18.774Z,147442.84
2023-05-21T21:05:45.983Z,147451.38
2023-05-21T21:08:13.090Z,147439.22
2023-05-21T21:10:42.279Z,147412.34
2023-05-21T21:13:09.434Z,147408.66
2023-05-21T21:15:36.653Z,147405.00
2023-05-21T21:18:04.030Z,147383.00
2023-05-21T21:20:31.126Z,147370.81
2023-05-21T21:22:58.162Z,147356.13
2023-05-21T21:25:25.235Z,147334.19
2023-05-21T21:27:52.290Z,147312.22
2023-05-21T21:30:19.346Z,147297.56
2023-05-21T21:32:47.510Z,147271.94
2023-05-21T21:35:14.789Z,147182.81
2023-05-21T21:37:41.895Z,147248.75
2023-05-21T21:40:09.382Z,147245.03
2023-05-21T21:42:36.432Z,147214.50
2023-05-21T21:45:04.699Z,147203.53
2023-05-21T21:47:31.935Z,147194.97
2023-05-21T21:49:59.281Z,147199.84
2023-05-21T21:52:29.372Z,147194.97
2023-05-21T21:54:56.421Z,147153.50
2023-05-21T21:57:24.184Z,147170.59
2023-05-21T21:59:51.287Z,147199.84
2023-05-21T22:02:18.518Z,147204.72
2023-05-21T22:04:45.572Z,147204.72
2023-05-21T22:07:16.851Z,147202.31
2023-05-21T22:09:44.982Z,147214.50
2023-05-21T22:12:13.111Z,147194.97
2023-05-21T22:14:40.253Z,147197.44
2023-05-21T22:17:08.489Z,147190.09
2023-05-21T22:19:35.849Z,147153.50
2023-05-21T22:22:04.375Z,147160.84
2023-05-21T22:24:33.198Z,147148.63
2023-05-21T22:27:01.166Z,147146.19
2023-05-21T22:29:28.197Z,147141.28
2023-05-21T22:31:55.475Z,147130.31
2023-05-21T22:34:25.040Z,147121.78
2023-05-21T22:36:52.138Z,147082.75
2023-05-21T22:39:19.239Z,147043.69
2023-05-21T22:41:46.829Z,147116.88
2023-05-21T22:44:13.869Z,147099.78
2023-05-21T22:46:42.169Z,147140.06
2023-05-21T22:49:11.877Z,147126.66
2023-05-21T22:51:39.165Z,147110.81
2023-05-21T22:54:06.324Z,147104.66
2023-05-21T22:56:33.360Z,147058.31
2023-05-21T22:59:00.395Z,147071.75
2023-05-21T23:01:27.452Z,147030.28
2023-05-21T23:03:54.561Z,147024.19
2023-05-21T23:06:21.597Z,147014.44
2023-05-21T23:08:48.656Z,146994.94
2023-05-21T23:11:15.803Z,146990.00
2023-05-21T23:13:42.893Z,146980.22
2023-05-21T23:16:10.127Z,146971.66
2023-05-21T23:18:37.309Z,146907.03
2023-05-21T23:21:04.498Z,146947.28
2023-05-21T23:23:31.625Z,146944.88
2023-05-21T23:25:58.991Z,146929.00
2023-05-21T23:28:26.384Z,146924.13
2023-05-21T23:30:53.593Z,146855.84
2023-05-21T23:33:20.708Z,146890.00
2023-05-21T23:35:47.769Z,146842.44
2023-05-21T23:38:14.875Z,146882.66
2023-05-21T23:40:42.229Z,146899.75
2023-05-21T23:43:09.326Z,146882.66
2023-05-21T23:45:37.099Z,146865.59
2023-05-21T23:48:04.591Z,146872.91
2023-05-21T23:50:31.631Z,146880.22
2023-05-21T23:52:59.255Z,146865.59
2023-05-21T23:55:26.333Z,146850.97
2023-05-21T23:57:53.414Z,146848.56
